createdAt,value
2018-07-31T00:01:45.260Z,6.97
2018-07-31T00:04:13.700Z,6.77
2018-07-31T00:06:42.172Z,6.85
2018-07-31T00:09:10.613Z,7.70
2018-07-31T00:11:39.068Z,7.27
2018-07-31T00:14:07.508Z,8.40
2018-07-31T00:16:36.590Z,6.83
2018-07-31T00:19:05.103Z,7.03
2018-07-31T00:21:33.240Z,8.50
2018-07-31T00:24:01.681Z,6.97
2018-07-31T00:26:30.101Z,7.23
2018-07-31T00:28:58.515Z,6.57
2018-07-31T00:31:26.888Z,6.55
2018-07-31T00:33:55.371Z,7.10
2018-07-31T00:36:23.720Z,7.20
2018-07-31T00:38:52.156Z,6.90
2018-07-31T00:41:20.570Z,8.08
2018-07-31T00:43:49.022Z,7.17
2018-07-31T00:46:17.442Z,7.30
2018-07-31T00:48:45.889Z,8.20
2018-07-31T00:51:14.313Z,7.77
2018-07-31T00:53:42.830Z,7.60
2018-07-31T00:56:11.290Z,11.17
2018-07-31T00:58:39.734Z,8.13
2018-07-31T01:01:08.167Z,8.13
2018-07-31T01:03:36.600Z,18.17
2018-07-31T01:06:05.082Z,7.40
2018-07-31T01:08:33.512Z,7.30
2018-07-31T01:11:02.023Z,10.23
2018-07-31T01:13:30.411Z,7.95
2018-07-31T01:15:58.876Z,6.83
2018-07-31T01:18:27.278Z,7.80
2018-07-31T01:20:55.683Z,6.77
2018-07-31T01:23:24.141Z,15.53
2018-07-31T01:25:52.619Z,8.30
2018-07-31T01:28:21.044Z,7.37
2018-07-31T01:30:49.562Z,6.87
2018-07-31T01:33:17.951Z,7.43
2018-07-31T01:35:46.382Z,7.00
2018-07-31T01:38:14.767Z,7.80
2018-07-31T01:40:42.833Z,8.65
2018-07-31T01:43:11.330Z,9.47
2018-07-31T01:45:39.729Z,7.37
2018-07-31T01:48:08.170Z,8.53
2018-07-31T01:50:36.756Z,9.33
2018-07-31T01:53:05.200Z,9.87
2018-07-31T01:55:33.763Z,7.80
2018-07-31T01:58:02.208Z,7.47
2018-07-31T02:00:30.664Z,9.07
2018-07-31T02:02:59.080Z,10.17
2018-07-31T02:05:34.114Z,9.35
2018-07-31T02:08:02.539Z,11.63
2018-07-31T02:10:30.981Z,7.87
2018-07-31T02:12:59.360Z,8.50
2018-07-31T02:15:27.789Z,8.13
2018-07-31T02:17:56.168Z,7.67
2018-07-31T02:20:24.680Z,8.10
2018-07-31T02:22:53.075Z,9.07
2018-07-31T02:25:21.505Z,8.90
2018-07-31T02:27:49.879Z,8.27
2018-07-31T02:30:22.537Z,7.97
2018-07-31T02:32:51.952Z,8.13
2018-07-31T02:35:20.379Z,9.07
2018-07-31T02:37:48.844Z,12.20
2018-07-31T02:40:17.270Z,8.90
2018-07-31T02:42:45.713Z,9.97
2018-07-31T02:45:14.867Z,8.98
2018-07-31T02:47:44.242Z,6.70
2018-07-31T02:50:12.668Z,9.83
2018-07-31T02:52:41.436Z,7.72
2018-07-31T02:55:10.879Z,8.40
2018-07-31T02:57:39.808Z,8.53
2018-07-31T03:00:09.432Z,10.80
2018-07-31T03:02:37.928Z,10.10
2018-07-31T03:05:08.615Z,8.75
2018-07-31T03:07:37.038Z,9.23
2018-07-31T03:10:06.845Z,8.65
2018-07-31T03:12:35.219Z,8.88
2018-07-31T03:15:03.925Z,8.43
2018-07-31T03:17:32.423Z,8.07
2018-07-31T03:20:00.905Z,9.60
2018-07-31T03:22:29.328Z,8.20
2018-07-31T03:24:57.761Z,10.70
2018-07-31T03:27:26.168Z,8.90
2018-07-31T03:29:54.569Z,9.63
2018-07-31T03:32:23.032Z,9.00
2018-07-31T03:34:51.556Z,9.10
2018-07-31T03:37:19.948Z,8.77
2018-07-31T03:39:48.422Z,9.33
2018-07-31T03:42:16.821Z,10.10
2018-07-31T03:44:45.218Z,8.23
2018-07-31T03:47:14.157Z,8.90
2018-07-31T03:49:45.859Z,8.50
2018-07-31T03:52:14.393Z,8.93
2018-07-31T03:54:42.956Z,11.73
2018-07-31T03:57:11.398Z,11.03
2018-07-31T03:59:39.914Z,10.47
2018-07-31T04:02:08.402Z,11.17
2018-07-31T04:04:37.041Z,8.77
2018-07-31T04:07:05.676Z,11.83
2018-07-31T04:09:34.109Z,9.83
2018-07-31T04:12:03.768Z,9.83
2018-07-31T04:14:34.938Z,9.25
2018-07-31T04:17:03.502Z,8.45
2018-07-31T04:19:31.987Z,9.37
2018-07-31T04:22:03.711Z,10.60
2018-07-31T04:24:32.309Z,9.45
2018-07-31T04:27:00.673Z,10.73
2018-07-31T04:29:29.155Z,10.20
2018-07-31T04:31:57.650Z,10.97
2018-07-31T04:34:26.136Z,9.43
2018-07-31T04:36:59.359Z,13.60
2018-07-31T04:39:27.847Z,9.07
2018-07-31T04:41:56.244Z,10.17
2018-07-31T04:44:24.620Z,8.63
2018-07-31T04:46:53.038Z,11.20
2018-07-31T04:49:21.392Z,11.30
2018-07-31T04:51:49.791Z,12.03
2018-07-31T04:54:18.222Z,8.93
2018-07-31T04:56:46.675Z,9.60
2018-07-31T04:59:15.072Z,10.40
2018-07-31T05:01:43.544Z,9.57
2018-07-31T05:04:11.992Z,9.87
2018-07-31T05:06:40.533Z,9.90
2018-07-31T05:09:10.736Z,9.78
2018-07-31T05:11:39.353Z,9.40
2018-07-31T05:14:09.687Z,11.13
2018-07-31T05:16:39.097Z,8.30
2018-07-31T05:19:09.152Z,8.88
2018-07-31T05:21:38.430Z,8.63
2018-07-31T05:24:08.536Z,12.30
2018-07-31T05:26:37.996Z,10.40
2018-07-31T05:29:07.696Z,11.40
2018-07-31T05:31:37.429Z,9.40
2018-07-31T05:34:06.578Z,10.80
2018-07-31T05:36:36.355Z,10.47
2018-07-31T05:39:10.110Z,10.10
2018-07-31T05:41:40.638Z,11.00
2018-07-31T05:44:09.985Z,12.80
2018-07-31T05:46:39.636Z,9.87
2018-07-31T05:49:09.130Z,10.90
2018-07-31T05:51:38.234Z,9.23
2018-07-31T05:54:08.495Z,10.50
2018-07-31T05:56:37.707Z,15.00
2018-07-31T05:59:07.158Z,11.80
2018-07-31T06:01:36.952Z,9.00
2018-07-31T06:04:06.520Z,10.37
2018-07-31T06:06:36.077Z,9.87
2018-07-31T06:09:08.365Z,9.47
2018-07-31T06:11:38.485Z,9.40
2018-07-31T06:14:08.661Z,9.90
2018-07-31T06:16:39.757Z,11.23
2018-07-31T06:19:09.542Z,12.33
2018-07-31T06:21:38.890Z,13.27
2018-07-31T06:24:08.740Z,11.00
2018-07-31T06:26:38.996Z,11.80
2018-07-31T06:29:08.208Z,10.40
2018-07-31T06:31:37.801Z,10.63
2018-07-31T06:34:06.991Z,12.10
2018-07-31T06:36:37.925Z,10.70
2018-07-31T06:39:09.982Z,16.47
2018-07-31T06:41:39.829Z,13.63
2018-07-31T06:44:09.638Z,10.88
2018-07-31T06:46:39.310Z,9.67
2018-07-31T06:49:09.024Z,9.80
2018-07-31T06:51:38.518Z,17.30
2018-07-31T06:54:08.396Z,10.85
2018-07-31T06:56:37.197Z,10.00
2018-07-31T06:59:12.883Z,11.57
2018-07-31T07:04:51.084Z,9.03
2018-07-31T07:07:37.220Z,9.23
2018-07-31T07:10:46.872Z,10.37
2018-07-31T07:13:20.288Z,9.63
2018-07-31T07:15:54.256Z,11.10
2018-07-31T07:18:29.289Z,8.40
2018-07-31T07:21:05.188Z,11.00
2018-07-31T07:23:33.711Z,13.60
2018-07-31T07:26:03.767Z,8.50
2018-07-31T07:28:33.818Z,7.00
2018-07-31T07:31:03.896Z,9.00
2018-07-31T07:33:34.076Z,8.30
2018-07-31T07:36:04.084Z,8.33
2018-07-31T07:38:33.789Z,8.27
2018-07-31T07:41:03.644Z,8.63
2018-07-31T07:43:34.003Z,8.53
2018-07-31T07:46:02.692Z,10.07
2018-07-31T07:48:32.238Z,9.63
2018-07-31T07:51:02.040Z,7.95
2018-07-31T07:53:31.049Z,9.53
2018-07-31T07:56:00.405Z,7.90
2018-07-31T07:58:30.173Z,10.73
2018-07-31T08:01:00.405Z,8.95
2018-07-31T08:03:29.089Z,9.30
2018-07-31T08:05:58.899Z,10.90
2018-07-31T09:35:01.772Z,5.67
2018-07-31T11:45:03.727Z,6.00
2018-07-31T11:47:32.464Z,6.10
2018-07-31T11:50:00.942Z,6.20
2018-07-31T11:52:29.524Z,5.73
2018-07-31T11:54:58.008Z,5.57
2018-07-31T11:57:26.434Z,6.77
2018-07-31T11:59:55.053Z,6.60
2018-07-31T12:02:23.534Z,11.00
2018-07-31T12:04:51.901Z,6.10
2018-07-31T12:07:20.359Z,5.60
2018-07-31T12:09:48.900Z,5.83
2018-07-31T12:12:17.266Z,5.50
2018-07-31T12:14:46.260Z,5.10
2018-07-31T12:17:14.744Z,5.03
2018-07-31T12:19:42.864Z,5.42
2018-07-31T12:22:11.397Z,4.40
2018-07-31T12:24:39.830Z,5.33
2018-07-31T12:27:08.297Z,5.20
2018-07-31T12:29:36.764Z,5.20
2018-07-31T12:32:05.346Z,4.73
2018-07-31T12:34:33.828Z,6.40
2018-07-31T12:37:02.269Z,4.67
2018-07-31T12:39:30.693Z,7.63
2018-07-31T12:41:59.149Z,5.50
2018-07-31T12:44:27.583Z,7.75
2018-07-31T12:46:56.099Z,4.80
2018-07-31T12:49:24.677Z,5.30
2018-07-31T12:51:53.076Z,5.80
2018-07-31T12:54:21.480Z,4.92
2018-07-31T12:56:49.891Z,4.90
2018-07-31T12:59:18.356Z,5.17
2018-07-31T13:01:46.807Z,4.60
2018-07-31T13:04:15.257Z,6.15
2018-07-31T13:06:43.713Z,6.00
2018-07-31T13:09:12.094Z,5.10
2018-07-31T13:11:40.516Z,5.13
2018-07-31T13:14:08.984Z,4.90
2018-07-31T13:16:37.408Z,4.70
2018-07-31T13:19:05.933Z,5.30
2018-07-31T13:21:34.385Z,4.20
2018-07-31T13:24:02.794Z,4.60
2018-07-31T13:26:31.291Z,4.33
2018-07-31T13:28:59.708Z,4.33
2018-07-31T13:31:28.160Z,4.45
2018-07-31T13:33:56.507Z,4.53
2018-07-31T13:36:25.169Z,4.27
2018-07-31T13:38:53.556Z,5.80
2018-07-31T13:41:28.942Z,5.20
2018-07-31T13:43:57.484Z,4.33
2018-07-31T13:46:25.825Z,4.07
2018-07-31T13:48:54.359Z,4.47
2018-07-31T13:51:22.869Z,6.03
2018-07-31T13:53:51.413Z,4.20
2018-07-31T13:56:19.891Z,4.10
2018-07-31T13:58:48.441Z,4.57
2018-07-31T14:01:16.876Z,4.10
2018-07-31T14:03:45.473Z,4.53
2018-07-31T14:06:15.100Z,4.67
2018-07-31T14:08:43.556Z,4.10
2018-07-31T14:11:11.945Z,4.50
2018-07-31T14:13:40.409Z,4.45
2018-07-31T14:16:08.796Z,5.77
2018-07-31T14:18:37.872Z,4.33
2018-07-31T14:21:06.336Z,3.50
2018-07-31T14:23:34.737Z,4.97
2018-07-31T14:26:03.174Z,5.20
2018-07-31T14:28:31.675Z,4.30
2018-07-31T14:31:00.941Z,4.20
2018-07-31T14:33:30.671Z,6.40
2018-07-31T14:35:59.137Z,5.17
2018-07-31T14:38:27.739Z,4.73
2018-07-31T14:40:57.915Z,4.10
2018-07-31T14:43:26.432Z,4.60
2018-07-31T14:45:55.681Z,5.33
2018-07-31T14:48:24.149Z,5.00
2018-07-31T14:50:52.484Z,4.35
2018-07-31T14:53:20.963Z,5.83
2018-07-31T14:55:49.389Z,4.97
2018-07-31T14:58:17.822Z,4.70
2018-07-31T15:00:46.261Z,4.60
2018-07-31T15:03:14.739Z,4.67
2018-07-31T15:05:43.145Z,4.43
2018-07-31T15:08:11.573Z,4.33
2018-07-31T15:10:40.071Z,4.63
2018-07-31T15:13:08.566Z,4.40
2018-07-31T15:15:37.554Z,4.60
2018-07-31T15:18:06.199Z,5.07
2018-07-31T15:20:34.715Z,4.72
2018-07-31T15:23:03.172Z,4.03
2018-07-31T15:25:32.212Z,4.67
2018-07-31T15:28:00.659Z,4.20
2018-07-31T15:30:29.980Z,4.37
2018-07-31T15:32:58.428Z,4.00
2018-07-31T15:35:26.954Z,3.77
2018-07-31T15:37:55.986Z,3.62
2018-07-31T15:40:24.491Z,6.13
2018-07-31T15:42:53.754Z,4.10
2018-07-31T15:45:22.210Z,7.15
2018-07-31T15:47:50.697Z,4.40
2018-07-31T15:50:19.346Z,4.50
2018-07-31T15:52:47.928Z,4.33
2018-07-31T15:55:16.402Z,4.93
2018-07-31T15:57:44.818Z,4.17
2018-07-31T16:00:13.300Z,4.57
2018-07-31T16:02:41.714Z,6.28
2018-07-31T16:05:13.184Z,4.70
2018-07-31T16:07:41.627Z,4.67
2018-07-31T16:10:10.144Z,7.13
2018-07-31T16:12:38.577Z,5.00
2018-07-31T16:15:07.138Z,4.63
2018-07-31T16:17:35.624Z,4.35
2018-07-31T16:20:04.644Z,4.00
2018-07-31T16:22:33.201Z,4.70
2018-07-31T16:25:01.635Z,5.17
2018-07-31T16:27:30.028Z,4.40
2018-07-31T16:29:58.607Z,6.50
2018-07-31T16:32:27.090Z,4.43
2018-07-31T16:34:55.665Z,5.92
2018-07-31T16:37:24.358Z,4.90
2018-07-31T16:39:52.829Z,4.37
2018-07-31T16:42:21.322Z,5.27
2018-07-31T16:44:49.816Z,6.40
2018-07-31T16:47:18.587Z,6.87
2018-07-31T16:49:46.961Z,6.67
2018-07-31T16:52:15.450Z,5.23
2018-07-31T16:54:43.957Z,7.40
2018-07-31T16:57:12.416Z,7.90
2018-07-31T16:59:40.895Z,4.83
2018-07-31T17:02:09.433Z,7.60
2018-07-31T17:04:37.867Z,11.70
2018-07-31T17:07:06.370Z,5.90
2018-07-31T17:09:34.883Z,4.43
2018-07-31T17:12:03.285Z,4.25
2018-07-31T17:14:31.710Z,4.97
2018-07-31T17:17:00.782Z,4.40
2018-07-31T17:19:29.329Z,2.93
2018-07-31T17:21:57.840Z,3.47
2018-07-31T17:24:26.297Z,6.20
2018-07-31T17:26:54.821Z,4.20
2018-07-31T17:29:23.248Z,4.10
2018-07-31T17:31:51.696Z,4.00
2018-07-31T17:34:20.273Z,4.83
2018-07-31T17:36:48.706Z,3.77
2018-07-31T17:39:17.155Z,4.05
2018-07-31T17:41:45.581Z,4.00
2018-07-31T17:44:14.047Z,4.10
2018-07-31T17:46:42.514Z,3.53
2018-07-31T17:49:10.894Z,4.07
2018-07-31T17:51:39.332Z,3.53
2018-07-31T17:54:08.161Z,4.00
2018-07-31T17:56:36.637Z,3.60
2018-07-31T17:59:05.136Z,3.60
2018-07-31T18:01:33.639Z,3.93
2018-07-31T18:04:02.055Z,3.40
2018-07-31T18:06:30.537Z,4.30
2018-07-31T18:08:59.069Z,3.73
2018-07-31T18:11:30.507Z,4.63
2018-07-31T18:13:59.691Z,4.00
2018-07-31T18:16:32.477Z,4.70
2018-07-31T18:19:01.327Z,4.33
2018-07-31T18:21:33.714Z,4.40
2018-07-31T18:24:02.300Z,5.73
2018-07-31T18:26:30.734Z,4.35
2018-07-31T18:28:59.153Z,4.60
2018-07-31T18:31:27.587Z,4.15
2018-07-31T18:33:56.025Z,4.90
2018-07-31T18:44:00.459Z,5.55
2018-07-31T18:46:28.957Z,4.50
2018-07-31T18:48:58.527Z,5.40
2018-07-31T18:51:28.225Z,4.77
2018-07-31T18:53:57.482Z,3.43
2018-07-31T18:56:28.249Z,4.53
2018-07-31T18:58:56.684Z,5.75
2018-07-31T19:01:26.141Z,4.40
2018-07-31T19:03:54.554Z,4.47
2018-07-31T19:06:23.008Z,5.03
2018-07-31T19:08:51.535Z,4.00
2018-07-31T19:11:20.007Z,4.23
2018-07-31T19:13:48.553Z,5.17
2018-07-31T19:16:17.035Z,3.70
2018-07-31T19:18:45.677Z,4.70
2018-07-31T19:21:20.742Z,4.85
2018-07-31T19:23:55.305Z,4.33
2018-07-31T19:26:23.895Z,8.50
2018-07-31T19:28:53.839Z,8.07
2018-07-31T19:31:22.367Z,4.50
2018-07-31T19:33:50.998Z,4.27
2018-07-31T19:36:20.767Z,4.70
2018-07-31T19:38:49.230Z,3.83
2018-07-31T19:41:17.635Z,3.97
2018-07-31T19:46:32.212Z,4.73
2018-07-31T19:49:01.865Z,3.90
2018-07-31T19:51:30.418Z,4.50
2018-07-31T19:53:58.842Z,4.50
2018-07-31T19:56:27.625Z,5.83
2018-07-31T19:58:56.085Z,4.23
2018-07-31T20:01:24.605Z,3.97
2018-07-31T20:03:53.526Z,6.10
2018-07-31T20:06:22.149Z,6.20
2018-07-31T20:08:50.593Z,4.90
2018-07-31T20:11:19.091Z,5.73
2018-07-31T20:13:47.473Z,5.00
2018-07-31T20:16:16.137Z,6.77
2018-07-31T20:18:44.583Z,9.37
2018-07-31T20:21:13.151Z,5.80
2018-07-31T20:23:41.571Z,4.80
2018-07-31T20:26:10.089Z,4.63
2018-07-31T20:28:38.600Z,8.40
2018-07-31T20:31:07.492Z,3.90
2018-07-31T20:33:35.910Z,3.85
2018-07-31T20:36:04.346Z,4.00
2018-07-31T20:38:32.777Z,4.07
2018-07-31T20:41:01.157Z,6.00
2018-07-31T20:43:29.767Z,3.72
2018-07-31T20:45:58.215Z,5.00
2018-07-31T20:48:26.641Z,3.97
2018-07-31T20:50:56.818Z,4.50
2018-07-31T20:53:25.647Z,4.70
2018-07-31T20:55:54.395Z,5.33
2018-07-31T20:58:23.125Z,3.83
2018-07-31T21:00:51.637Z,3.50
2018-07-31T21:03:20.121Z,8.33
2018-07-31T21:05:48.549Z,5.78
2018-07-31T21:08:17.083Z,5.03
2018-07-31T21:10:52.929Z,3.60
2018-07-31T21:13:21.981Z,7.60
2018-07-31T21:15:50.490Z,4.30
2018-07-31T21:18:19.280Z,2.97
2018-07-31T21:20:56.288Z,3.82
2018-07-31T21:23:24.988Z,5.57
2018-07-31T21:25:53.729Z,4.50
2018-07-31T21:28:23.114Z,4.60
2018-07-31T21:31:04.188Z,5.07
2018-07-31T21:33:32.645Z,2.73
2018-07-31T21:36:01.171Z,4.07
2018-07-31T21:38:30.212Z,5.00
2018-07-31T21:41:11.044Z,5.62
2018-07-31T21:43:39.538Z,3.47
2018-07-31T21:46:08.222Z,3.97
2018-07-31T21:48:36.720Z,3.70
2018-07-31T21:51:05.218Z,5.80
2018-07-31T21:53:34.475Z,2.97
2018-07-31T21:56:03.790Z,3.13
2018-07-31T21:58:38.181Z,5.40
2018-07-31T22:01:12.557Z,3.30
2018-07-31T22:03:40.994Z,3.17
2018-07-31T22:06:09.416Z,4.22
2018-07-31T22:08:38.392Z,5.60
2018-07-31T22:11:07.670Z,2.57
2018-07-31T22:13:36.074Z,2.73
2018-07-31T22:16:04.503Z,2.07
2018-07-31T22:18:32.943Z,3.05
2018-07-31T22:21:01.336Z,3.80
2018-07-31T22:23:29.818Z,2.37
2018-07-31T22:25:58.210Z,2.60
2018-07-31T22:28:26.660Z,3.60
2018-07-31T22:30:55.094Z,4.30
2018-07-31T22:33:23.552Z,4.80
2018-07-31T22:35:52.037Z,3.93
2018-07-31T22:38:20.496Z,2.40
2018-07-31T22:40:48.985Z,3.17
2018-07-31T22:43:17.396Z,3.83
2018-07-31T22:45:46.547Z,3.73
2018-07-31T22:48:14.942Z,3.80
2018-07-31T22:50:43.407Z,2.73
2018-07-31T22:53:12.050Z,2.90
2018-07-31T22:55:40.521Z,2.97
2018-07-31T22:58:08.959Z,3.03
2018-07-31T23:00:37.453Z,2.08
2018-07-31T23:03:05.894Z,2.53
2018-07-31T23:05:34.333Z,3.20
2018-07-31T23:08:02.721Z,2.50
2018-07-31T23:10:31.185Z,2.57
2018-07-31T23:12:59.613Z,3.10
2018-07-31T23:15:28.110Z,2.62
2018-07-31T23:17:56.505Z,3.47
2018-07-31T23:20:25.616Z,2.67
2018-07-31T23:22:54.516Z,6.83
2018-07-31T23:25:22.927Z,4.77
2018-07-31T23:27:51.485Z,2.83
2018-07-31T23:30:19.941Z,4.40
2018-07-31T23:32:48.378Z,7.93
2018-07-31T23:35:16.931Z,3.67
2018-07-31T23:37:45.464Z,5.73
2018-07-31T23:40:13.905Z,2.23
2018-07-31T23:42:42.293Z,4.60
2018-07-31T23:45:10.850Z,5.17
2018-07-31T23:47:39.268Z,3.30
2018-07-31T23:50:09.493Z,2.85
2018-07-31T23:52:37.897Z,2.60
2018-07-31T23:55:06.491Z,3.03
2018-07-31T23:57:34.950Z,4.60
